Address 0x080f1bc6e53d1d020783ee65c68869e804e5506a

 
Txn Hash
Block
From
To
Value [Txn Fee]
0x470636015f881bef0b8157e34c43ec185a304659d3e9186b6cc1cf21a6bce56083659002021-06-17 4:31:401 day 13 hrs ago0x080f1bc6e53d1d020783ee65c68869e804e5506aOUT 0x311827832c1f670229ef0afbe96d2df8195c8c9a0 BNB0.000237065
0xb3e04edba1452ad3e6695a392619f1a8e74903e9c290d8ae9e8f5721e5eb9e0d83658992021-06-17 4:31:371 day 13 hrs ago0x080f1bc6e53d1d020783ee65c68869e804e5506aOUT 0x311827832c1f670229ef0afbe96d2df8195c8c9a0 BNB0.000237065
0xaebdc8e6c33583bf50f5ead71e30b5eaa76f275a31d333f6080f0999ed09f1f583658972021-06-17 4:31:311 day 13 hrs ago0x080f1bc6e53d1d020783ee65c68869e804e5506aOUT 0x311827832c1f670229ef0afbe96d2df8195c8c9a0 BNB0.000237065
0x3f8cfdd72812eb293ee2eb118f68c65258043a49477e990e26c8f9cb5f6c97cc83658962021-06-17 4:31:281 day 13 hrs ago0x080f1bc6e53d1d020783ee65c68869e804e5506aOUT 0x311827832c1f670229ef0afbe96d2df8195c8c9a0 BNB0.000237065
0xd885f71b660787f5f848030ec1ef5de567955ea9f7cffc927a15b06240f5897083658942021-06-17 4:31:221 day 13 hrs ago0x080f1bc6e53d1d020783ee65c68869e804e5506aOUT 0x311827832c1f670229ef0afbe96d2df8195c8c9a0 BNB0.000237065
0xf5a26a896b8c2b35900f7cb8a8e694a45786f5e122846118efbda73c4fbda7c583658922021-06-17 4:31:161 day 13 hrs ago0x080f1bc6e53d1d020783ee65c68869e804e5506aOUT 0x311827832c1f670229ef0afbe96d2df8195c8c9a0 BNB0.000312065
0x476716e1f82f90bd0bb92dda591589aa898c52c26235b335c2b8783bd24b3e4483433912021-06-16 9:40:402 days 8 hrs ago0x080f1bc6e53d1d020783ee65c68869e804e5506aOUT 0xd3abd3fdc3463f3a82c80adc581da2432e42c2150 BNB0.00018523
0xdd69e4965d22c7bb190669de32e3809f8a64bef3e2b91a7c40e6744347a1e26283233242021-06-15 16:48:473 days 1 hr ago0x080f1bc6e53d1d020783ee65c68869e804e5506aOUT PancakeSwap: Router v20.17397653 BNB0.001375665
0xd059a82dfd2b6a7ec93d103d273c6591125dd285f60c3a5982965ac06b458bca83198892021-06-15 13:54:303 days 4 hrs ago0x5b1864cb38e96d3d25592c787d481b637abc4def IN 0x080f1bc6e53d1d020783ee65c68869e804e5506a0.18376651 BNB0.000294
0x1cd78be63b0632d2c4ae91b72beac5baa29bddedfb2bcffe7eb71a83ad3e3ffb83136252021-06-15 8:32:413 days 9 hrs ago0x080f1bc6e53d1d020783ee65c68869e804e5506aOUT 0xd3abd3fdc3463f3a82c80adc581da2432e42c2150 BNB0.00029361
0xf51ed79b4fce473425a50b0a7a7e1c4b66a1707266cc9bbf795b5dd260ec7d0783136232021-06-15 8:32:353 days 9 hrs ago0x080f1bc6e53d1d020783ee65c68869e804e5506aOUT 0xd3abd3fdc3463f3a82c80adc581da2432e42c2150 BNB0.00029361
0x7d9ea2e38f3cf8ad27e8b482714ad911c73574f11ba4aa405150c09ef417193a83136202021-06-15 8:32:263 days 9 hrs ago0x080f1bc6e53d1d020783ee65c68869e804e5506aOUT 0xd3abd3fdc3463f3a82c80adc581da2432e42c2150 BNB0.00029361
0x26b5530053a23d6f0b2b90c8462e819d02e6b358b1e04dd9883ce685df42c8a083136202021-06-15 8:32:263 days 9 hrs ago0x080f1bc6e53d1d020783ee65c68869e804e5506aOUT 0xd3abd3fdc3463f3a82c80adc581da2432e42c2150 BNB0.00029361
0xb733bb87c5d73ecb394f621db796365ef8dd0ded3b41f265608aff9113d7c9d083136192021-06-15 8:32:233 days 9 hrs ago0x080f1bc6e53d1d020783ee65c68869e804e5506aOUT 0xd3abd3fdc3463f3a82c80adc581da2432e42c2150 BNB0.00036861
0xc044939ca8833be2177f7fe269a730554c5839f843acc207f41506e7e48ef9cc83126792021-06-15 7:44:043 days 10 hrs ago0x080f1bc6e53d1d020783ee65c68869e804e5506aOUT PancakeSwap: Router v20 BNB0.001176475
0x7093972cb220450157b90d87b0fc827928d8be55de66129859e73053ded93e4582858762021-06-14 9:09:304 days 8 hrs ago0x080f1bc6e53d1d020783ee65c68869e804e5506aOUT 0x311827832c1f670229ef0afbe96d2df8195c8c9a0 BNB0.000303325
0x36dfad561f9cfa38923029120d20268840167c4e01475788bb0f25ca106faebc82858732021-06-14 9:09:164 days 8 hrs ago0x080f1bc6e53d1d020783ee65c68869e804e5506aOUT 0x311827832c1f670229ef0afbe96d2df8195c8c9a0 BNB0.000303325
0x02fc6abab149f44ea282ea5e993002ce2c4d46a3022992908fce5a58c5f529b682858712021-06-14 9:09:104 days 8 hrs ago0x080f1bc6e53d1d020783ee65c68869e804e5506aOUT 0x311827832c1f670229ef0afbe96d2df8195c8c9a0 BNB0.000303325
0xfe1926ff93440e52db0dc46d1d210802f6ef672ce995ebfa141374544e87841782858692021-06-14 9:09:044 days 8 hrs ago0x080f1bc6e53d1d020783ee65c68869e804e5506aOUT 0x311827832c1f670229ef0afbe96d2df8195c8c9a0 BNB0.000303325
0xa0e44e75558b23e7dd32546bcaa785eab01e6183bee1aba26b9373860c19c23d82858672021-06-14 9:08:584 days 8 hrs ago0x080f1bc6e53d1d020783ee65c68869e804e5506aOUT 0x311827832c1f670229ef0afbe96d2df8195c8c9a0 BNB0.000303325
0xa3b31d64d3080931e23dbf9cce0ff3e4ec3db1e8a221db695e061fd05546c3c182858662021-06-14 9:08:554 days 8 hrs ago0x080f1bc6e53d1d020783ee65c68869e804e5506aOUT 0x311827832c1f670229ef0afbe96d2df8195c8c9a0 BNB0.000303325
0x04bc30a395d864f649de296245a902d0eadb8bb8e4b7d6ba06adbbaf1484ea2382858642021-06-14 9:08:454 days 8 hrs ago0x080f1bc6e53d1d020783ee65c68869e804e5506aOUT 0x311827832c1f670229ef0afbe96d2df8195c8c9a0 BNB0.000378325
0x7eae6c615955f7f35509668bdf300ba693ce4e86c53d2e477905e73164970ec282858362021-06-14 9:07:114 days 9 hrs ago0x080f1bc6e53d1d020783ee65c68869e804e5506aOUT 0xf0579c7b21c9c27c7beb8372cd01a473553305c60 BNB0.000113515
0xbf6c9297fd2e2f90a4e00f1668fa3de59bea1ebb6e069b547c2140ac2e230b1582858292021-06-14 9:06:464 days 9 hrs ago0x080f1bc6e53d1d020783ee65c68869e804e5506aOUT 0xf0579c7b21c9c27c7beb8372cd01a473553305c60 BNB0.000113515
0xb1f55b40a47a8f04368b113f26105b5a01a994fad6dd9b765548164e26a6938a82858152021-06-14 9:05:594 days 9 hrs ago0x080f1bc6e53d1d020783ee65c68869e804e5506aOUT 0xf0579c7b21c9c27c7beb8372cd01a473553305c60 BNB0.001544645
[ Download CSV Export 
Latest 3 internal transactions
Parent Txn Hash Block From To Value
0x9bf428604362e1d6930c77bde6f927a7642644800c5c33597d12582ec34c193d77640192021-05-27 4:30:2522 days 13 hrs ago BSC: Token Hub0x080f1bc6e53d1d020783ee65c68869e804e5506a0.01726303 BNB
0x4e9a3dae5c65e317de3c83934aefce83334c2b44778c2be2960b9c41cffe3a8365754962021-04-15 2:43:5964 days 15 hrs ago BSC: Token Hub0x080f1bc6e53d1d020783ee65c68869e804e5506a0.0490854 BNB
0xf68ffc6926ee29e52a3aa0f292c3911c0c8b2afd5a87f614012e0d84baf956fd64722532021-04-11 12:36:5768 days 5 hrs ago BSC: Token Hub0x080f1bc6e53d1d020783ee65c68869e804e5506a0.1061184 BNB
[ Download CSV Export 
Loading

Contract Name:
0 BNB

Compiler Version
0

Optimization Enabled:
0 BNB

Other Settings:
-NA-
Block Transaction Gas Used Reward
Age Block Fee Address BC Fee Address Voting Power Jailed Incoming
Block Uncle Number Difficulty Gas Used Reward
Loading
Loading
Make sure to use the "Vote Down" button for any spammy posts, and the "Vote Up" for interesting conversations.